• Join FlightAware (Why Join?)
  • Login
  • US Flag GB Flag 
19:48 EDT


 

Airport Tracker/Info


-or-


 

Live Flight TrackerFlight Track Log ✈ XOJ750 ✈ 11-Jul-2013 ✈ KLAS - KBED

Flight Track Log - Related Links

Times and Time Zones

All times are in EDT time to prevent confusion due to time zone crossing. See the XOJ750 flight status page for this flight to view local times or setup timezone preferences in your user account.

Time Position Orientation Groundspeed Altitude Reporting Facility
EDT Latitude Longitude Course Direction KTS MPH feet Rate Location/Type
17:53 36.0756 -115.1258 89° East 178 205 2,900  Level Los Angeles Center
17:54 36.0764 -115.0403 89° East 219 252 4,900 1,500 Climbing Los Angeles Center
17:55 36.0769 -115.0025 89° East 220 253 5,600 1,980 Climbing Los Angeles Center
17:56 36.0850 -114.8867 85° East 277 319 8,100 2,280 Climbing Los Angeles Center
17:57 36.1025 -114.7864 78° East 293 337 10,400 2,100 Climbing Los Angeles Center
17:58 36.1211 -114.6806 78° East 309 356 12,500 1,980 Climbing Los Angeles Center
17:59 36.1403 -114.5650 78° East 334 384 14,500 1,740 Climbing Los Angeles Center
18:00 36.1603 -114.4450 78° East 351 404 16,500 2,220 Climbing Los Angeles Center
18:01 36.1889 -114.2725 78° East 365 420 19,600 2,640 Climbing Los Angeles Center
18:02 36.2311 -114.1614 65° Northeast 359 413 22,100 1,920 Climbing Los Angeles Center
18:03 36.2819 -114.0289 65° Northeast 356 410 24,000 1,500 Climbing Los Angeles Center
18:05 36.3522 -113.8436 65° Northeast 373 429 26,400 1,440 Climbing Salt Lake Center
18:05 36.3706 -113.7947 65° Northeast 375 432 27,000 1,200 Climbing Los Angeles Center
18:07 36.4331 -113.6867 54° Northeast 386 444 28,300 1,080 Climbing Los Angeles Center
18:08 36.5128 -113.5733 49° Northeast 403 464 29,300 960 Climbing Los Angeles Center
18:09 36.5894 -113.4622 49° Northeast 418 481 30,300 1,020 Climbing Los Angeles Center
18:10 36.6975 -113.3358 43° Northeast 439 505 31,500 1,020 Climbing Los Angeles Center
18:11 36.7942 -113.2328 40° Northeast 453 521 32,500 960 Climbing Los Angeles Center
18:12 36.8922 -113.1286 40° Northeast 462 532 33,500 960 Climbing Los Angeles Center
18:13 36.9908 -113.0214 41° Northeast 469 540 34,500 1,080 Climbing Los Angeles Center
18:14 37.0856 -112.9097 43° Northeast 472 543 35,800 1,200 Climbing Los Angeles Center
18:15 37.1922 -112.7689 46° Northeast 469 540 37,100 960 Climbing Los Angeles Center
18:16 37.2742 -112.6419 51° Northeast 473 544 37,900 660 Climbing Los Angeles Center
18:17 37.3558 -112.5119 52° Northeast 478 550 38,500 540 Climbing Los Angeles Center
18:17 37.4067 -112.4328 51° Northeast 481 554 38,800 480 Climbing Salt Lake Center
18:18 37.4925 -112.2967 51° Northeast 491 565 39,300 480 Climbing Salt Lake Center
18:19 37.5797 -112.1581 52° Northeast 502 578 39,800 480 Climbing Salt Lake Center
18:20 37.6681 -112.0169 52° Northeast 512 589 40,300 480 Climbing Salt Lake Center
18:21 37.7558 -111.8739 52° Northeast 517 595 40,900 300 Climbing Salt Lake Center
18:23 37.8458 -111.7308 51° Northeast 521 600 41,000  Climbing Salt Lake Center
18:24 37.9550 -111.5556 52° Northeast 528 608 41,000  Level Salt Lake Center
18:25 38.0472 -111.4078 52° Northeast 535 616 41,000  Level Salt Lake Center
18:26 38.1389 -111.2592 52° Northeast 536 617 41,000  Level Salt Lake Center
18:27 38.2286 -111.1089 53° Northeast 536 617 41,000  Level Salt Lake Center
18:28 38.3203 -110.9569 52° Northeast 540 621 41,000 60 Level Salt Lake Center
18:29 38.4272 -110.7808 52° Northeast 539 620 41,200 360 Climbing Salt Lake Center
18:30 38.5144 -110.6372 52° Northeast 534 615 41,800 600 Climbing Salt Lake Center
18:31 38.5989 -110.4947 53° Northeast 526 605 42,500 540 Climbing Salt Lake Center
18:32 38.6953 -110.3328 53° Northeast 514 592 43,000 240 Climbing Salt Lake Center
18:33 38.7781 -110.1931 53° Northeast 514 592 43,000  Level Salt Lake Center
18:34 38.8750 -110.0283 53° Northeast 517 595 43,000  Level Salt Lake Center
18:35 38.9578 -109.8847 53° Northeast 521 600 43,000  Level Salt Lake Center
18:36 39.0539 -109.7194 53° Northeast 517 595 43,000  Level Salt Lake Center
18:37 39.1361 -109.5767 53° Northeast 519 597 43,000  Level Salt Lake Center
18:38 39.2328 -109.4108 53° Northeast 518 596 43,000  Level Salt Lake Center
18:39 39.3144 -109.2669 54° Northeast 518 596 43,000  Level Salt Lake Center
18:40 39.4094 -109.1003 54° Northeast 517 595 43,000  Level Salt Lake Center
18:41 39.4908 -108.9569 54° Northeast 517 595 43,000  Level Salt Lake Center
18:42 39.5803 -108.7992 54° Northeast 518 596 43,000  Level Salt Lake Center
18:43 39.6639 -108.6508 54° Northeast 525 604 43,000  Level Salt Lake Center
18:44 39.7597 -108.4800 54° Northeast 529 609 43,000  Level Salt Lake Center
18:45 39.8269 -108.3281 60° Northeast 517 595 43,000  Level Salt Lake Center
18:46 39.8767 -108.1297 72° East 517 595 43,000  Level Salt Lake Center
18:47 39.9183 -107.9586 72° East 517 595 43,000  Level Salt Lake Center
18:49 39.9792 -107.6983 73° East 521 600 43,000  Level Denver Center
18:50 40.0194 -107.5261 73° East 519 597 43,000  Level Denver Center
18:51 40.0675 -107.3253 73° East 520 598 43,000  Level Denver Center
18:52 40.1092 -107.1514 73° East 525 604 43,000  Level Denver Center
18:53 40.1561 -106.9503 73° East 519 597 43,000  Level Denver Center
18:54 40.1964 -106.7758 73° East 523 602 43,000  Level Denver Center
18:55 40.2372 -106.6081 72° East 519 597 43,000  Level Denver Center
18:56 40.2828 -106.4003 74° East 520 598 43,000  Level Denver Center
18:57 40.3297 -106.1964 73° East 522 601 43,000  Level Denver Center
18:58 40.3669 -106.0183 75° East 526 605 43,000  Level Denver Center
18:59 40.4075 -105.8314 74° East 530 610 43,000  Level Denver Center
19:00 40.4478 -105.6464 74° East 528 608 43,000  Level Denver Center
19:01 40.4975 -105.4342 73° East 521 600 43,000  Level Denver Center
19:02 40.5283 -105.2869 75° East 523 602 43,000  Level Denver Center
19:03 40.5808 -105.0536 73° East 531 611 43,000  Level Denver Center
19:04 40.6197 -104.8694 74° East 524 603 43,000  Level Denver Center
19:05 40.6603 -104.6811 74° East 532 612 43,000  Level Denver Center
19:06 40.7017 -104.4858 74° East 517 595 43,000  Level Denver Center
19:07 40.7400 -104.2886 76° East 516 594 43,000  Level Denver Center
19:08 40.7692 -104.1356 76° East 533 613 43,000  Level Denver Center
19:09 40.8119 -103.9294 75° East 526 605 43,000  Level Denver Center
19:10 40.8544 -103.7250 75° East 521 600 43,000  Level Denver Center
19:11 40.8894 -103.5469 75° East 523 602 43,000  Level Denver Center
19:12 40.9311 -103.3397 75° East 523 602 43,000  Level Denver Center
19:14 40.9642 -103.1636 76° East 520 598 43,000  Level Denver Center
19:15 41.0053 -102.9525 75° East 525 604 43,000  Level Denver Center
19:16 41.0389 -102.7728 76° East 526 605 43,000  Level Denver Center
19:17 41.0794 -102.5636 76° East 525 604 43,000  Level Denver Center
19:18 41.1142 -102.3833 76° East 526 605 43,000  Level Denver Center
19:19 41.1533 -102.1733 76° East 526 605 43,000  Level Denver Center
19:20 41.1800 -102.0233 77° East 525 604 43,000  Level Denver Center
19:21 41.2250 -101.7836 76° East 525 604 43,000  Level Denver Center
19:22 41.2581 -101.6031 76° East 525 604 43,000  Level Denver Center
19:23 41.2914 -101.4208 76° East 527 606 43,000  Level Denver Center
19:24 41.3283 -101.2092 77° East 526 605 43,000  Level Denver Center
19:25 41.3597 -101.0286 77° East 522 601 43,000  Level Denver Center
19:26 41.3961 -100.8183 77° East 519 597 43,000  Level Denver Center
19:27 41.4289 -100.6372 76° East 521 600 43,000  Level Denver Center
19:28 41.4633 -100.4264 78° East 520 598 43,000  Level Denver Center
19:29 41.4942 -100.2483 77° East 516 594 43,000  Level Denver Center
19:30 41.5239 -100.0669 78° East 520 598 43,000  Level Denver Center
19:31 41.5583 -99.8539 78° East 524 603 43,000  Level Denver Center
19:32 41.5917 -99.6508 78° East 527 606 43,000  Level Denver Center
19:33 41.6222 -99.4583 78° East 527 606 43,000  Level Denver Center
19:34 41.6533 -99.2664 78° East 526 605 43,000  Level Denver Center
19:35 41.6831 -99.0728 78° East 527 606 43,000  Level Denver Center
19:36 41.7125 -98.8808 78° East 525 604 43,000  Level Denver Center
19:37 41.7419 -98.6886 78° East 524 603 43,000  Level Denver Center
19:38 41.7711 -98.4964 78° East 524 603 43,000  Level Denver Center
19:40 41.8106 -98.2281 79° East 522 601 43,000  Level Minneapolis Center
19:41 41.8411 -98.0211 79° East 520 598 43,000  Level Minneapolis Center
19:42 41.8697 -97.8319 78° East 518 596 43,000  Level Minneapolis Center
19:43 41.8953 -97.6417 80° East 519 597 43,000  Level Minneapolis Center
19:44 41.9225 -97.4508 79° East 519 597 43,000  Level Minneapolis Center
19:45 41.9492 -97.2606 79° East 518 596 43,000  Level Minneapolis Center
19:46 41.9819 -97.0314 79° East 519 597 43,000  Level Minneapolis Center
19:47 42.0075 -96.8394 80° East 520 598 43,000  Level Minneapolis Center
19:48 42.0322 -96.6489 80° East 517 595 43,000  Level Minneapolis Center
19:49 42.0583 -96.4592 79° East 516 594 43,000  Level Minneapolis Center
19:50 42.0817 -96.2658 81° East 519 597 43,000  Level Minneapolis Center
19:51 42.1075 -96.0719 80° East 523 602 43,000  Level Minneapolis Center
19:52 42.1322 -95.8792 80° East 521 600 43,000  Level Minneapolis Center
19:53 42.1608 -95.6461 81° East 522 601 43,000  Level Minneapolis Center
19:54 42.1836 -95.4539 81° East 521 600 43,000  Level Minneapolis Center
19:55 42.2072 -95.2592 81° East 522 601 43,000  Level Minneapolis Center
19:56 42.2303 -95.0650 81° East 523 602 43,000  Level Minneapolis Center
19:58 42.2583 -94.8331 81° East 523 602 43,000  Level Minneapolis Center
19:59 42.2808 -94.6367 81° East 521 600 43,000  Level Minneapolis Center
20:00 42.3053 -94.4044 82° East 524 603 43,000  Level Minneapolis Center
20:01 42.3289 -94.2008 81° East 520 598 43,000  Level Minneapolis Center
20:02 42.3514 -94.0097 81° East 520 598 43,000  Level Minneapolis Center
20:03 42.3706 -93.8186 82° East 519 597 43,000  Level Minneapolis Center
20:04 42.3903 -93.6272 82° East 519 597 43,000  Level Minneapolis Center
20:05 42.4147 -93.3997 82° East 515 593 43,000  Level Minneapolis Center
20:06 42.4342 -93.2100 82° East 515 593 43,000  Level Minneapolis Center
20:07 42.4533 -93.0211 82° East 513 590 43,000  Level Minneapolis Center
20:08 42.4719 -92.8333 82° East 510 587 43,000  Level Minneapolis Center
20:09 42.4906 -92.6439 82° East 512 589 43,000  Level Minneapolis Center
20:10 42.5158 -92.3783 83° East 513 590 43,000  Level Minneapolis Center
20:11 42.5336 -92.1869 83° East 517 595 43,000  Level Minneapolis Center
20:12 42.5514 -91.9961 83° East 518 596 43,000  Level Minneapolis Center
20:13 42.5678 -91.8058 83° East 518 596 43,000  Level Minneapolis Center
20:14 42.5869 -91.5789 83° East 519 597 43,000  Level Minneapolis Center
20:15 42.6031 -91.3894 83° East 521 600 43,000  Level Minneapolis Center
20:16 42.6186 -91.2011 84° East 516 594 43,000  Level Minneapolis Center
20:17 42.6375 -90.9722 84° East 515 593 43,000  Level Minneapolis Center
20:18 42.6511 -90.7806 84° East 517 595 43,000  Level Minneapolis Center
20:20 42.6658 -90.6108 83° East 515 593 43,000  Level Minneapolis Center
20:21 42.6861 -90.3611 84° East 515 593 43,000  Level Chicago Center
20:22 42.7008 -90.1689 84° East 516 594 43,000  Level Chicago Center
20:23 42.7175 -89.9386 84° East 515 593 43,000  Level Chicago Center
20:24 42.7325 -89.7447 84° East 507 583 43,000  Level Chicago Center
20:25 42.7461 -89.5506 84° East 517 595 43,000  Level Chicago Center
20:26 42.7589 -89.3592 85° East 513 590 43,000  Level Chicago Center
20:27 42.7717 -89.1675 85° East 513 590 43,000  Level Chicago Center
20:28 42.7858 -88.9425 85° East 514 592 43,000  Level Chicago Center
20:29 42.7983 -88.7503 85° East 513 590 43,000  Level Chicago Center
20:30 42.8106 -88.5564 85° East 517 595 43,000  Level Chicago Center
20:31 42.8217 -88.3622 85° East 516 594 43,000  Level Chicago Center
20:32 42.8333 -88.1706 85° East 512 589 43,000  Level Chicago Center
20:33 42.8458 -87.9442 86° East 514 592 43,000  Level Chicago Center
20:34 42.8564 -87.7533 86° East 510 587 43,000  Level Chicago Center
20:35 42.8656 -87.5597 86° East 512 589 43,000  Level Chicago Center
20:36 42.8767 -87.3522 86° East 510 587 43,000  Level Chicago Center
20:37 42.8861 -87.1581 86° East 513 590 43,000  Level Chicago Center
20:38 42.8958 -86.9644 86° East 514 592 43,000  Level Chicago Center
20:39 42.9042 -86.7703 87° East 516 594 43,000  Level Chicago Center
20:40 42.9133 -86.5764 86° East 515 593 43,000  Level Chicago Center
20:41 42.9228 -86.3428 87° East 517 595 43,000  Level Chicago Center
20:42 42.9292 -86.1489 87° East 519 597 43,000  Level Chicago Center
20:43 42.9378 -85.9553 86° East 528 608 43,000  Level Chicago Center
20:45 42.9439 -85.7614 87° East 530 610 43,000  Level Chicago Center
20:46 42.9533 -85.5283 87° East 520 598 43,000  Level Chicago Center
20:47 42.9597 -85.3308 87° East 523 602 43,000  Level Chicago Center
20:48 42.9667 -85.1356 87° East 520 598 43,000  Level Chicago Center
20:49 42.9708 -84.9381 88° East 522 601 43,000  Level Chicago Center
20:50 42.9775 -84.7400 87° East 523 602 43,000  Level Chicago Center
20:51 42.9831 -84.5039 88° East 522 601 43,000  Level Chicago Center
20:52 42.9881 -84.3064 88° East 522 601 43,000  Level Chicago Center
20:53 42.9917 -84.1172 88° East 507 583 43,000  Level Cleveland Center
20:54 42.9933 -83.9186 89° East 518 596 43,000  Level Cleveland Center
20:55 42.9989 -83.7231 88° East 518 596 43,000  Level Cleveland Center
20:56 43.0022 -83.5214 89° East 518 596 43,000  Level Cleveland Center
20:57 43.0050 -83.3258 89° East 518 596 43,000  Level Cleveland Center
20:58 43.0072 -83.1300 89° East 513 590 43,000  Level Cleveland Center
20:59 43.0094 -82.9342 89° East 513 590 43,000  Level Cleveland Center
21:00 43.0111 -82.7325 89° East 513 590 43,000  Level Cleveland Center
21:01 43.0000 -82.5000 94° East 520 598 43,000  Level Toronto Center
21:02 43.0000 -82.3000 90° East 520 598 43,000  Level Toronto Center
21:03 43.0000 -82.1167 90° East 520 598 43,000  Level Toronto Center
21:04 43.0000 -81.9167 90° East 520 598 43,000  Level Toronto Center
21:05 43.0167 -81.7000 84° East 520 598 43,000  Level Toronto Center
21:06 43.0000 -81.5000 96° East 520 598 43,000  Level Toronto Center
21:07 43.0000 -81.3167 90° East 530 610 43,000  Level Toronto Center
21:08 43.0000 -81.1167 90° East 530 610 43,000  Level Toronto Center
21:09 43.0000 -80.9167 90° East 530 610 43,000  Level Toronto Center
21:10 43.0000 -80.7000 90° East 530 610 43,000  Level Toronto Center
21:11 43.0000 -80.5000 90° East 530 610 43,000  Level Toronto Center
21:12 43.0000 -80.3167 90° East 540 621 43,000  Level Toronto Center
21:13 43.0000 -80.0833 90° East 540 621 43,000  Level Toronto Center
21:14 43.0000 -79.9000 90° East 540 621 43,000  Level Toronto Center
21:15 42.9833 -79.6833 96° East 540 621 43,000  Level Toronto Center
21:16 42.9833 -79.5000 90° East 540 621 43,000  Level Toronto Center
21:17 42.9833 -79.2667 90° East 540 621 43,000  Level Toronto Center
21:18 42.9833 -79.0667 90° East 540 621 43,000  Level Toronto Center
21:19 42.9833 -78.8667 90° East 540 621 43,000  Level Toronto Center
21:20 42.9667 -78.6500 96° East 550 633 43,000  Level Toronto Center
21:21 42.9500 -78.4500 96° East 550 633 43,000  Level Toronto Center
21:22 42.9500 -78.2500 90° East 550 633 43,000  Level Toronto Center
21:23 42.9500 -78.0167 90° East 550 633 43,000  Level Toronto Center
21:24 42.9500 -77.8167 90° East 550 633 43,000  Level Toronto Center
21:25 42.9333 -77.6000 96° East 550 633 43,000  Level Toronto Center
21:26 42.9167 -77.4000 96° East 560 644 43,000  Level Toronto Center
21:27 42.9167 -77.1667 90° East 550 633 43,000  Level Toronto Center
21:28 42.9167 -76.9667 90° East 550 633 43,000  Level Toronto Center
21:29 42.9000 -76.7667 96° East 550 633 43,000  Level Toronto Center
21:30 42.8833 -76.5667 96° East 550 633 43,000  Level Toronto Center
21:31 42.8833 -76.3333 90° East 550 633 43,000 -360 Level Toronto Center
21:32 42.8833 -76.1333 90° East 550 633 42,300 -900 Descending Toronto Center
21:33 42.8667 -75.9333 96° East 560 644 41,300 -1,140 Descending Toronto Center
21:34 42.8500 -75.7167 96° East 570 656 40,100 -1,200 Descending Toronto Center
21:35 42.8333 -75.5000 96° East 580 667 38,900 -1,200 Descending Toronto Center
21:36 42.8333 -75.2667 90° East 580 667 37,700 -1,200 Descending Toronto Center
21:37 42.8167 -75.0667 96° East 590 679 36,500 -2,100 Descending Toronto Center
21:38 42.8000 -74.8333 95° East 590 679 33,600 -3,000 Descending Toronto Center
21:39 42.7833 -74.6167 96° East 580 667 30,500 -2,340 Descending Toronto Center
21:40 42.7667 -74.3833 95° East 580 667 29,000 -720 Descending Toronto Center
21:41 42.7725 -74.1967 87° East 576 663 29,000  Level Boston Center
21:42 42.7567 -73.9811 96° East 576 663 29,000  Level Boston Center
21:43 42.7325 -73.7658 99° East 576 663 29,000  Level Boston Center
21:44 42.7142 -73.5111 96° East 576 663 29,000  Level Boston Center
21:45 42.6911 -73.2958 98° East 576 663 29,000 -120 Level Boston Center
21:46 42.6717 -73.0867 97° East 576 663 28,800 -1,020 Descending Boston Center
21:47 42.6475 -72.8664 98° East 577 664 27,000 -3,000 Descending Boston Center
21:48 42.6272 -72.6828 98° East 549 632 22,900 -4,440 Descending Boston Center
21:49 42.6067 -72.5050 99° East 500 575 18,200 -4,560 Descending Boston Center
21:50 42.5881 -72.3386 99° East 467 537 13,800 -3,060 Descending Boston Center
21:51 42.5689 -72.1836 99° East 406 467 12,100 -1,620 Descending Boston Center
21:52 42.5583 -72.0736 97° East 342 394 10,600 -1,740 Descending Boston Center
21:53 42.5431 -71.9497 99° East 309 356 8,700 -1,800 Descending Boston Center
21:54 42.5344 -71.8542 97° East 292 336 7,100 -1,740 Descending Boston Center
21:55 42.5525 -71.7411 78° East 281 323 5,300 -1,560 Descending Boston Center
21:56 42.5664 -71.6536 78° East 270 311 4,000 -660 Descending Boston Center
21:57 42.5825 -71.5575 77° East 251 289 4,000 -360 Level Boston Center
21:58 42.5833 -71.5000 89° East 243 280 3,500 -1,140 Descending KA90
21:58 42.5667 -71.4333 109° East 260 299 2,600 -900 Descending KA90
21:59 42.5500 -71.3500 105° East 221 254 2,000 -300 Descending KA90
22:00 42.5333 -71.2667 105° East 198 228 2,000 -180 Level KA90
22:01 42.5333 -71.2167 90° East 148 170 1,700 -360 Descending KA90
22:02 42.4833 -71.2167 180° South 152 175 1,300 -600 Descending KA90
22:03 42.4667 -71.2500 236° Southwest 134 154 500 1,680 Descending KA90
22:05 42.4344 -71.3064 232° Southwest 117 135 6,000 1,980 Climbing Boston Center
22:06 42.4139 -71.3433 233° Southwest 117 135 6,000  Level Boston Center
22:07 42.3933 -71.3775 231° Southwest 117 135 6,000  Level Boston Center
22:09 42.4667 -71.2833 20° North  Level FlightAware Approximate
22:16 42.4699 -71.2890 20° North  Level Estimated
22:17 42.4667 -71.2833 20° North  Level FlightAware Approximate